Terminal Aerodrome Forecast
Issued by NWS Shreveport, LA

Home | Current Version | Previous Version | Text Only | Print | Product List | Glossary On
Versions: 1 2 3 4 5 6 7 8 9 10 11 12 13 14 15 16 17 18 19
372
FTUS44 KSHV 040523
TAFMLU
TAF
KMLU 040523Z 0406/0506 VRB03KT P6SM SCT150
     FM041400 28007KT P6SM SKC
     FM041700 30015G21KT P6SM SKC
     FM042100 28017G24KT P6SM SKC=

USA.gov is the U.S. government's official web portal to all federal, state and local government web resources and services.